sensor_id;sensor_type;location;lat;lon;timestamp;temperature;humidity
31677;DHT22;18385;51.572;6.578;2023-04-09T00:01:26;12.20;62.40
31677;DHT22;18385;51.572;6.578;2023-04-09T00:03:51;12.20;62.30
31677;DHT22;18385;51.572;6.578;2023-04-09T00:06:17;12.30;62.20
31677;DHT22;18385;51.572;6.578;2023-04-09T00:08:42;12.30;62.20
31677;DHT22;18385;51.572;6.578;2023-04-09T00:11:08;12.40;62.20
31677;DHT22;18385;51.572;6.578;2023-04-09T00:13:34;12.40;62.10
31677;DHT22;18385;51.572;6.578;2023-04-09T00:15:59;12.40;62.10
31677;DHT22;18385;51.572;6.578;2023-04-09T00:18:25;12.40;62.10
31677;DHT22;18385;51.572;6.578;2023-04-09T00:20:51;12.30;62.10
31677;DHT22;18385;51.572;6.578;2023-04-09T00:23:16;12.30;62.10
31677;DHT22;18385;51.572;6.578;2023-04-09T00:25:42;12.20;62.20
31677;DHT22;18385;51.572;6.578;2023-04-09T00:28:08;12.10;62.30
31677;DHT22;18385;51.572;6.578;2023-04-09T00:30:33;12.10;62.80
31677;DHT22;18385;51.572;6.578;2023-04-09T00:32:59;12.00;62.50
31677;DHT22;18385;51.572;6.578;2023-04-09T00:35:25;12.00;62.70
31677;DHT22;18385;51.572;6.578;2023-04-09T00:37:51;11.90;62.70
31677;DHT22;18385;51.572;6.578;2023-04-09T00:40:16;11.80;62.80
31677;DHT22;18385;51.572;6.578;2023-04-09T00:42:42;11.70;62.90
31677;DHT22;18385;51.572;6.578;2023-04-09T00:45:08;11.70;63.00
31677;DHT22;18385;51.572;6.578;2023-04-09T00:47:34;11.60;63.10
31677;DHT22;18385;51.572;6.578;2023-04-09T00:50:01;11.60;63.20
31677;DHT22;18385;51.572;6.578;2023-04-09T00:52:27;11.50;63.30
31677;DHT22;18385;51.572;6.578;2023-04-09T00:54:55;11.50;63.40
31677;DHT22;18385;51.572;6.578;2023-04-09T00:57:23;11.40;63.50
31677;DHT22;18385;51.572;6.578;2023-04-09T00:59:49;11.40;63.60
31677;DHT22;18385;51.572;6.578;2023-04-09T01:02:15;11.40;63.60
31677;DHT22;18385;51.572;6.578;2023-04-09T01:04:41;11.40;63.70
31677;DHT22;18385;51.572;6.578;2023-04-09T01:07:17;11.40;63.70
31677;DHT22;18385;51.572;6.578;2023-04-09T01:12:53;11.40;63.80
31677;DHT22;18385;51.572;6.578;2023-04-09T01:15:29;11.30;63.80
31677;DHT22;18385;51.572;6.578;2023-04-09T01:20:42;11.30;63.90
31677;DHT22;18385;51.572;6.578;2023-04-09T01:23:17;11.20;63.90
31677;DHT22;18385;51.572;6.578;2023-04-09T01:26:04;11.10;63.80
31677;DHT22;18385;51.572;6.578;2023-04-09T01:28:44;10.90;63.90
31677;DHT22;18385;51.572;6.578;2023-04-09T01:31:16;10.70;64.10
31677;DHT22;18385;51.572;6.578;2023-04-09T01:33:43;10.70;64.30
31677;DHT22;18385;51.572;6.578;2023-04-09T01:36:10;10.60;64.40
31677;DHT22;18385;51.572;6.578;2023-04-09T01:38:39;10.60;64.50
31677;DHT22;18385;51.572;6.578;2023-04-09T01:41:07;10.50;64.60
31677;DHT22;18385;51.572;6.578;2023-04-09T01:43:34;10.40;64.60
31677;DHT22;18385;51.572;6.578;2023-04-09T01:46:01;10.40;64.80
31677;DHT22;18385;51.572;6.578;2023-04-09T01:48:30;10.30;64.80
31677;DHT22;18385;51.572;6.578;2023-04-09T01:50:57;10.30;64.80
31677;DHT22;18385;51.572;6.578;2023-04-09T01:53:23;10.20;64.90
31677;DHT22;18385;51.572;6.578;2023-04-09T01:55:59;10.20;65.00
31677;DHT22;18385;51.572;6.578;2023-04-09T01:58:25;10.10;65.80
31677;DHT22;18385;51.572;6.578;2023-04-09T02:00:56;10.10;65.00
31677;DHT22;18385;51.572;6.578;2023-04-09T02:03:27;10.10;65.20
31677;DHT22;18385;51.572;6.578;2023-04-09T02:06:05;10.00;65.20
31677;DHT22;18385;51.572;6.578;2023-04-09T02:08:33;10.00;65.20
31677;DHT22;18385;51.572;6.578;2023-04-09T02:11:03;10.00;65.40
31677;DHT22;18385;51.572;6.578;2023-04-09T02:13:31;10.00;65.40
31677;DHT22;18385;51.572;6.578;2023-04-09T02:15:58;9.90;65.40
31677;DHT22;18385;51.572;6.578;2023-04-09T02:18:26;9.90;65.30
31677;DHT22;18385;51.572;6.578;2023-04-09T02:20:54;9.90;65.40
31677;DHT22;18385;51.572;6.578;2023-04-09T02:23:20;9.90;65.40
31677;DHT22;18385;51.572;6.578;2023-04-09T02:25:46;9.80;65.50
31677;DHT22;18385;51.572;6.578;2023-04-09T02:28:12;9.80;65.50
31677;DHT22;18385;51.572;6.578;2023-04-09T02:30:37;9.70;65.60
31677;DHT22;18385;51.572;6.578;2023-04-09T02:33:03;9.70;65.60
31677;DHT22;18385;51.572;6.578;2023-04-09T02:35:29;9.70;65.70
31677;DHT22;18385;51.572;6.578;2023-04-09T02:37:55;9.60;65.70
31677;DHT22;18385;51.572;6.578;2023-04-09T02:40:21;9.60;66.30
31677;DHT22;18385;51.572;6.578;2023-04-09T02:42:47;9.60;65.90
31677;DHT22;18385;51.572;6.578;2023-04-09T02:45:13;9.50;65.90
31677;DHT22;18385;51.572;6.578;2023-04-09T02:47:38;9.50;66.00
31677;DHT22;18385;51.572;6.578;2023-04-09T02:50:05;9.40;66.00
31677;DHT22;18385;51.572;6.578;2023-04-09T02:52:33;9.40;66.10
31677;DHT22;18385;51.572;6.578;2023-04-09T02:54:59;9.30;66.10
31677;DHT22;18385;51.572;6.578;2023-04-09T02:57:24;9.30;66.20
31677;DHT22;18385;51.572;6.578;2023-04-09T02:59:50;9.30;66.20
31677;DHT22;18385;51.572;6.578;2023-04-09T03:02:16;9.20;66.20
31677;DHT22;18385;51.572;6.578;2023-04-09T03:04:41;9.20;66.30
31677;DHT22;18385;51.572;6.578;2023-04-09T03:07:07;9.20;66.30
31677;DHT22;18385;51.572;6.578;2023-04-09T03:09:33;9.10;66.40
31677;DHT22;18385;51.572;6.578;2023-04-09T03:11:59;9.10;66.50
31677;DHT22;18385;51.572;6.578;2023-04-09T03:14:26;9.10;66.50
31677;DHT22;18385;51.572;6.578;2023-04-09T03:16:53;9.00;66.50
31677;DHT22;18385;51.572;6.578;2023-04-09T03:19:18;9.00;66.60
31677;DHT22;18385;51.572;6.578;2023-04-09T03:21:44;9.00;66.60
31677;DHT22;18385;51.572;6.578;2023-04-09T03:24:11;8.90;66.60
31677;DHT22;18385;51.572;6.578;2023-04-09T03:26:36;8.90;66.60
31677;DHT22;18385;51.572;6.578;2023-04-09T03:29:05;8.90;66.70
31677;DHT22;18385;51.572;6.578;2023-04-09T03:31:31;8.80;66.80
31677;DHT22;18385;51.572;6.578;2023-04-09T03:33:57;8.80;66.80
31677;DHT22;18385;51.572;6.578;2023-04-09T03:36:24;8.80;66.80
31677;DHT22;18385;51.572;6.578;2023-04-09T03:39:15;8.80;66.90
31677;DHT22;18385;51.572;6.578;2023-04-09T03:41:42;8.70;66.80
31677;DHT22;18385;51.572;6.578;2023-04-09T03:44:12;8.70;66.90
31677;DHT22;18385;51.572;6.578;2023-04-09T03:46:58;8.70;67.00
31677;DHT22;18385;51.572;6.578;2023-04-09T03:49:25;8.60;67.00
31677;DHT22;18385;51.572;6.578;2023-04-09T03:51:53;8.60;67.10
31677;DHT22;18385;51.572;6.578;2023-04-09T03:54:19;8.60;67.10
31677;DHT22;18385;51.572;6.578;2023-04-09T03:56:45;8.60;67.20
31677;DHT22;18385;51.572;6.578;2023-04-09T03:59:13;8.60;67.10
31677;DHT22;18385;51.572;6.578;2023-04-09T04:01:42;8.60;67.20
31677;DHT22;18385;51.572;6.578;2023-04-09T04:04:08;8.50;66.90
31677;DHT22;18385;51.572;6.578;2023-04-09T04:06:42;8.50;67.90
31677;DHT22;18385;51.572;6.578;2023-04-09T04:09:21;8.50;67.20
31677;DHT22;18385;51.572;6.578;2023-04-09T04:11:54;8.50;67.10
31677;DHT22;18385;51.572;6.578;2023-04-09T04:14:23;8.50;67.20
31677;DHT22;18385;51.572;6.578;2023-04-09T04:16:55;8.40;67.00
31677;DHT22;18385;51.572;6.578;2023-04-09T04:19:25;8.40;67.20
31677;DHT22;18385;51.572;6.578;2023-04-09T04:21:51;8.40;67.30
31677;DHT22;18385;51.572;6.578;2023-04-09T04:24:17;8.40;67.30
31677;DHT22;18385;51.572;6.578;2023-04-09T04:26:43;8.40;67.30
31677;DHT22;18385;51.572;6.578;2023-04-09T04:29:11;8.40;67.30
31677;DHT22;18385;51.572;6.578;2023-04-09T04:31:47;8.40;67.30
31677;DHT22;18385;51.572;6.578;2023-04-09T04:34:15;8.40;67.40
31677;DHT22;18385;51.572;6.578;2023-04-09T04:36:44;8.30;67.40
31677;DHT22;18385;51.572;6.578;2023-04-09T04:39:10;8.30;67.50
31677;DHT22;18385;51.572;6.578;2023-04-09T04:41:47;8.30;67.60
31677;DHT22;18385;51.572;6.578;2023-04-09T04:44:19;8.30;67.60
31677;DHT22;18385;51.572;6.578;2023-04-09T04:46:45;8.30;67.70
31677;DHT22;18385;51.572;6.578;2023-04-09T04:49:11;8.20;67.60
31677;DHT22;18385;51.572;6.578;2023-04-09T04:51:44;8.20;67.70
31677;DHT22;18385;51.572;6.578;2023-04-09T04:54:12;8.20;67.80
31677;DHT22;18385;51.572;6.578;2023-04-09T04:56:42;8.20;67.80
31677;DHT22;18385;51.572;6.578;2023-04-09T04:59:17;8.10;67.80
31677;DHT22;18385;51.572;6.578;2023-04-09T05:01:55;8.20;67.90
31677;DHT22;18385;51.572;6.578;2023-04-09T05:04:22;8.10;67.80
31677;DHT22;18385;51.572;6.578;2023-04-09T05:06:48;8.10;67.90
31677;DHT22;18385;51.572;6.578;2023-04-09T05:09:18;8.10;68.10
31677;DHT22;18385;51.572;6.578;2023-04-09T05:11:55;8.10;68.10
31677;DHT22;18385;51.572;6.578;2023-04-09T05:14:22;8.10;68.00
31677;DHT22;18385;51.572;6.578;2023-04-09T05:16:49;8.10;68.10
31677;DHT22;18385;51.572;6.578;2023-04-09T05:19:17;8.10;68.00
31677;DHT22;18385;51.572;6.578;2023-04-09T05:21:43;8.10;68.00
31677;DHT22;18385;51.572;6.578;2023-04-09T05:24:09;8.10;68.10
31677;DHT22;18385;51.572;6.578;2023-04-09T05:26:35;8.10;68.10
31677;DHT22;18385;51.572;6.578;2023-04-09T05:29:01;8.10;68.20
31677;DHT22;18385;51.572;6.578;2023-04-09T05:31:27;8.10;68.10
31677;DHT22;18385;51.572;6.578;2023-04-09T05:34:16;8.20;68.20
31677;DHT22;18385;51.572;6.578;2023-04-09T05:36:46;8.10;68.10
31677;DHT22;18385;51.572;6.578;2023-04-09T05:39:11;8.20;68.20
31677;DHT22;18385;51.572;6.578;2023-04-09T05:41:37;8.20;68.20
31677;DHT22;18385;51.572;6.578;2023-04-09T05:44:20;8.20;68.20
31677;DHT22;18385;51.572;6.578;2023-04-09T05:46:47;8.20;68.20
31677;DHT22;18385;51.572;6.578;2023-04-09T05:49:17;8.30;68.20
31677;DHT22;18385;51.572;6.578;2023-04-09T05:51:45;8.30;68.20
31677;DHT22;18385;51.572;6.578;2023-04-09T05:54:13;8.40;68.20
31677;DHT22;18385;51.572;6.578;2023-04-09T05:56:41;8.50;68.20
31677;DHT22;18385;51.572;6.578;2023-04-09T05:59:06;8.50;68.10
31677;DHT22;18385;51.572;6.578;2023-04-09T06:01:33;8.60;68.10
31677;DHT22;18385;51.572;6.578;2023-04-09T06:03:58;8.60;68.00
31677;DHT22;18385;51.572;6.578;2023-04-09T06:06:27;8.70;68.10
31677;DHT22;18385;51.572;6.578;2023-04-09T06:08:52;8.80;68.10
31677;DHT22;18385;51.572;6.578;2023-04-09T06:11:18;8.80;68.10
31677;DHT22;18385;51.572;6.578;2023-04-09T06:13:44;8.90;68.00
31677;DHT22;18385;51.572;6.578;2023-04-09T06:16:09;9.00;68.00
31677;DHT22;18385;51.572;6.578;2023-04-09T06:18:36;9.00;68.00
31677;DHT22;18385;51.572;6.578;2023-04-09T06:21:08;9.10;68.10
31677;DHT22;18385;51.572;6.578;2023-04-09T06:23:36;9.20;68.10
31677;DHT22;18385;51.572;6.578;2023-04-09T06:26:01;9.20;67.90
31677;DHT22;18385;51.572;6.578;2023-04-09T06:28:28;9.30;68.00
31677;DHT22;18385;51.572;6.578;2023-04-09T06:30:53;9.40;68.00
31677;DHT22;18385;51.572;6.578;2023-04-09T06:33:20;9.40;67.90
31677;DHT22;18385;51.572;6.578;2023-04-09T06:35:46;9.50;68.00
31677;DHT22;18385;51.572;6.578;2023-04-09T06:38:12;9.60;67.90
31677;DHT22;18385;51.572;6.578;2023-04-09T06:40:38;9.70;67.90
31677;DHT22;18385;51.572;6.578;2023-04-09T06:43:04;9.80;67.90
31677;DHT22;18385;51.572;6.578;2023-04-09T06:45:39;9.80;67.80
31677;DHT22;18385;51.572;6.578;2023-04-09T06:48:05;9.90;67.70
31677;DHT22;18385;51.572;6.578;2023-04-09T06:50:31;10.00;67.70
31677;DHT22;18385;51.572;6.578;2023-04-09T06:52:57;10.10;67.60
31677;DHT22;18385;51.572;6.578;2023-04-09T06:55:22;10.20;67.60
31677;DHT22;18385;51.572;6.578;2023-04-09T06:57:48;10.20;67.50
31677;DHT22;18385;51.572;6.578;2023-04-09T07:00:14;10.30;67.50
31677;DHT22;18385;51.572;6.578;2023-04-09T07:02:40;10.40;67.50
31677;DHT22;18385;51.572;6.578;2023-04-09T07:05:05;10.50;67.40
31677;DHT22;18385;51.572;6.578;2023-04-09T07:07:31;10.50;67.20
31677;DHT22;18385;51.572;6.578;2023-04-09T07:09:57;10.70;67.20
31677;DHT22;18385;51.572;6.578;2023-04-09T07:12:26;10.80;67.10
31677;DHT22;18385;51.572;6.578;2023-04-09T07:14:52;10.80;67.00
31677;DHT22;18385;51.572;6.578;2023-04-09T07:17:18;10.90;66.90
31677;DHT22;18385;51.572;6.578;2023-04-09T07:19:44;10.90;66.80
31677;DHT22;18385;51.572;6.578;2023-04-09T07:22:09;11.00;66.80
31677;DHT22;18385;51.572;6.578;2023-04-09T07:24:35;11.10;66.80
31677;DHT22;18385;51.572;6.578;2023-04-09T07:27:04;11.10;66.70
31677;DHT22;18385;51.572;6.578;2023-04-09T07:29:30;11.20;66.50
31677;DHT22;18385;51.572;6.578;2023-04-09T07:31:55;11.20;66.50
31677;DHT22;18385;51.572;6.578;2023-04-09T07:34:21;11.30;66.50
31677;DHT22;18385;51.572;6.578;2023-04-09T07:36:46;11.40;66.50
31677;DHT22;18385;51.572;6.578;2023-04-09T07:39:12;11.40;66.30
31677;DHT22;18385;51.572;6.578;2023-04-09T07:41:38;11.50;66.30
31677;DHT22;18385;51.572;6.578;2023-04-09T07:44:05;11.60;66.20
31677;DHT22;18385;51.572;6.578;2023-04-09T07:46:30;11.60;66.10
31677;DHT22;18385;51.572;6.578;2023-04-09T07:48:56;11.70;65.90
31677;DHT22;18385;51.572;6.578;2023-04-09T07:51:22;11.80;65.90
31677;DHT22;18385;51.572;6.578;2023-04-09T07:53:47;11.90;65.70
31677;DHT22;18385;51.572;6.578;2023-04-09T07:56:13;11.90;65.60
31677;DHT22;18385;51.572;6.578;2023-04-09T07:58:38;12.00;65.60
31677;DHT22;18385;51.572;6.578;2023-04-09T08:01:04;12.10;65.50
31677;DHT22;18385;51.572;6.578;2023-04-09T08:03:30;12.10;65.40
31677;DHT22;18385;51.572;6.578;2023-04-09T08:05:55;12.20;65.80
31677;DHT22;18385;51.572;6.578;2023-04-09T08:08:21;12.20;65.20
31677;DHT22;18385;51.572;6.578;2023-04-09T08:10:46;12.30;65.80
31677;DHT22;18385;51.572;6.578;2023-04-09T08:13:12;12.30;65.00
31677;DHT22;18385;51.572;6.578;2023-04-09T08:15:38;12.40;65.00
31677;DHT22;18385;51.572;6.578;2023-04-09T08:18:03;12.40;64.90
31677;DHT22;18385;51.572;6.578;2023-04-09T08:20:29;12.50;64.80
31677;DHT22;18385;51.572;6.578;2023-04-09T08:22:57;12.50;64.70
31677;DHT22;18385;51.572;6.578;2023-04-09T08:25:23;12.60;64.90
31677;DHT22;18385;51.572;6.578;2023-04-09T08:27:49;12.70;64.80
31677;DHT22;18385;51.572;6.578;2023-04-09T08:30:15;12.80;64.60
31677;DHT22;18385;51.572;6.578;2023-04-09T08:32:40;13.00;64.60
31677;DHT22;18385;51.572;6.578;2023-04-09T08:35:06;13.10;64.40
31677;DHT22;18385;51.572;6.578;2023-04-09T08:37:33;13.20;64.10
31677;DHT22;18385;51.572;6.578;2023-04-09T08:39:58;13.20;64.00
31677;DHT22;18385;51.572;6.578;2023-04-09T08:42:24;13.30;63.80
31677;DHT22;18385;51.572;6.578;2023-04-09T08:44:51;13.40;63.70
31677;DHT22;18385;51.572;6.578;2023-04-09T08:47:18;13.50;63.50
31677;DHT22;18385;51.572;6.578;2023-04-09T08:49:44;13.60;63.20
31677;DHT22;18385;51.572;6.578;2023-04-09T08:52:12;13.70;63.30
31677;DHT22;18385;51.572;6.578;2023-04-09T08:54:40;13.80;63.10
31677;DHT22;18385;51.572;6.578;2023-04-09T08:57:06;13.90;62.90
31677;DHT22;18385;51.572;6.578;2023-04-09T08:59:32;14.00;62.80
31677;DHT22;18385;51.572;6.578;2023-04-09T09:02:08;14.10;62.70
31677;DHT22;18385;51.572;6.578;2023-04-09T09:04:48;14.10;62.30
31677;DHT22;18385;51.572;6.578;2023-04-09T09:07:15;14.20;62.10
31677;DHT22;18385;51.572;6.578;2023-04-09T09:12:40;14.40;61.70
31677;DHT22;18385;51.572;6.578;2023-04-09T09:15:28;14.50;61.60
31677;DHT22;18385;51.572;6.578;2023-04-09T09:17:55;14.50;61.40
31677;DHT22;18385;51.572;6.578;2023-04-09T09:20:22;14.50;61.30
31677;DHT22;18385;51.572;6.578;2023-04-09T09:22:50;14.60;61.30
31677;DHT22;18385;51.572;6.578;2023-04-09T09:25:16;14.60;61.00
31677;DHT22;18385;51.572;6.578;2023-04-09T09:27:42;14.70;60.60
31677;DHT22;18385;51.572;6.578;2023-04-09T09:30:10;14.80;60.50
31677;DHT22;18385;51.572;6.578;2023-04-09T09:32:45;14.80;60.50
31677;DHT22;18385;51.572;6.578;2023-04-09T09:35:10;14.90;60.40
31677;DHT22;18385;51.572;6.578;2023-04-09T09:37:36;15.00;60.20
31677;DHT22;18385;51.572;6.578;2023-04-09T09:40:02;15.10;60.00
31677;DHT22;18385;51.572;6.578;2023-04-09T09:42:28;15.20;60.00
31677;DHT22;18385;51.572;6.578;2023-04-09T09:44:54;15.30;59.70
31677;DHT22;18385;51.572;6.578;2023-04-09T09:47:21;15.40;59.50
31677;DHT22;18385;51.572;6.578;2023-04-09T09:49:49;15.40;59.30
31677;DHT22;18385;51.572;6.578;2023-04-09T09:52:15;15.50;59.00
31677;DHT22;18385;51.572;6.578;2023-04-09T09:54:44;15.60;59.10
31677;DHT22;18385;51.572;6.578;2023-04-09T09:57:11;15.70;59.10
31677;DHT22;18385;51.572;6.578;2023-04-09T09:59:50;16.00;59.20
31677;DHT22;18385;51.572;6.578;2023-04-09T10:02:19;16.30;58.70
31677;DHT22;18385;51.572;6.578;2023-04-09T10:04:45;16.50;58.30
31677;DHT22;18385;51.572;6.578;2023-04-09T10:07:13;16.50;57.90
31677;DHT22;18385;51.572;6.578;2023-04-09T10:09:42;16.50;57.70
31677;DHT22;18385;51.572;6.578;2023-04-09T10:12:11;16.50;57.50
31677;DHT22;18385;51.572;6.578;2023-04-09T10:14:37;16.50;57.60
31677;DHT22;18385;51.572;6.578;2023-04-09T10:17:04;16.60;57.30
31677;DHT22;18385;51.572;6.578;2023-04-09T10:19:30;16.70;57.30
31677;DHT22;18385;51.572;6.578;2023-04-09T10:22:12;16.80;57.10
31677;DHT22;18385;51.572;6.578;2023-04-09T10:24:40;16.90;56.70
31677;DHT22;18385;51.572;6.578;2023-04-09T10:27:10;17.00;56.60
31677;DHT22;18385;51.572;6.578;2023-04-09T10:29:42;16.90;56.10
31677;DHT22;18385;51.572;6.578;2023-04-09T10:32:09;17.00;56.00
31677;DHT22;18385;51.572;6.578;2023-04-09T10:34:41;17.20;56.10
31677;DHT22;18385;51.572;6.578;2023-04-09T10:37:09;17.20;55.20
31677;DHT22;18385;51.572;6.578;2023-04-09T10:39:47;17.20;56.00
31677;DHT22;18385;51.572;6.578;2023-04-09T10:42:21;17.10;55.20
31677;DHT22;18385;51.572;6.578;2023-04-09T10:45:08;17.20;55.10
31677;DHT22;18385;51.572;6.578;2023-04-09T10:47:36;17.30;55.00
31677;DHT22;18385;51.572;6.578;2023-04-09T10:50:24;17.40;54.80
31677;DHT22;18385;51.572;6.578;2023-04-09T10:52:54;17.30;54.40
31677;DHT22;18385;51.572;6.578;2023-04-09T10:55:38;17.30;54.60
31677;DHT22;18385;51.572;6.578;2023-04-09T10:58:08;17.40;54.40
31677;DHT22;18385;51.572;6.578;2023-04-09T11:00:40;17.50;54.50
31677;DHT22;18385;51.572;6.578;2023-04-09T11:05:56;18.00;53.40
31677;DHT22;18385;51.572;6.578;2023-04-09T11:08:26;18.00;53.30
31677;DHT22;18385;51.572;6.578;2023-04-09T11:10:52;18.20;53.40
31677;DHT22;18385;51.572;6.578;2023-04-09T11:13:23;18.30;52.90
31677;DHT22;18385;51.572;6.578;2023-04-09T11:15:48;18.10;52.30
31677;DHT22;18385;51.572;6.578;2023-04-09T11:18:22;18.00;52.60
31677;DHT22;18385;51.572;6.578;2023-04-09T11:20:48;18.00;52.40
31677;DHT22;18385;51.572;6.578;2023-04-09T11:23:15;18.20;52.40
31677;DHT22;18385;51.572;6.578;2023-04-09T11:25:42;18.20;52.20
31677;DHT22;18385;51.572;6.578;2023-04-09T11:28:07;18.20;51.90
31677;DHT22;18385;51.572;6.578;2023-04-09T11:30:34;18.10;51.60
31677;DHT22;18385;51.572;6.578;2023-04-09T11:33:00;18.00;51.80
31677;DHT22;18385;51.572;6.578;2023-04-09T11:35:26;18.10;52.20
31677;DHT22;18385;51.572;6.578;2023-04-09T11:37:52;18.30;52.00
31677;DHT22;18385;51.572;6.578;2023-04-09T11:40:19;18.60;51.60
31677;DHT22;18385;51.572;6.578;2023-04-09T11:42:45;18.60;50.90
31677;DHT22;18385;51.572;6.578;2023-04-09T11:45:14;18.70;51.00
31677;DHT22;18385;51.572;6.578;2023-04-09T11:47:40;18.90;50.80
31677;DHT22;18385;51.572;6.578;2023-04-09T11:50:08;19.10;50.50
31677;DHT22;18385;51.572;6.578;2023-04-09T11:52:34;19.10;50.00
31677;DHT22;18385;51.572;6.578;2023-04-09T11:55:01;19.00;49.90
31677;DHT22;18385;51.572;6.578;2023-04-09T11:57:44;19.00;49.70
31677;DHT22;18385;51.572;6.578;2023-04-09T12:00:14;18.90;49.40
31677;DHT22;18385;51.572;6.578;2023-04-09T12:02:46;18.90;49.70
31677;DHT22;18385;51.572;6.578;2023-04-09T12:05:21;19.00;49.60
31677;DHT22;18385;51.572;6.578;2023-04-09T12:07:55;19.10;49.20
31677;DHT22;18385;51.572;6.578;2023-04-09T12:10:26;19.10;49.40
31677;DHT22;18385;51.572;6.578;2023-04-09T12:12:52;19.10;48.90
31677;DHT22;18385;51.572;6.578;2023-04-09T12:15:20;19.30;49.10
31677;DHT22;18385;51.572;6.578;2023-04-09T12:17:52;19.50;48.70
31677;DHT22;18385;51.572;6.578;2023-04-09T12:20:35;19.50;47.80
31677;DHT22;18385;51.572;6.578;2023-04-09T12:23:02;19.50;48.10
31677;DHT22;18385;51.572;6.578;2023-04-09T12:25:32;19.70;48.00
31677;DHT22;18385;51.572;6.578;2023-04-09T12:27:59;19.80;47.60
31677;DHT22;18385;51.572;6.578;2023-04-09T12:30:26;19.90;47.80
31677;DHT22;18385;51.572;6.578;2023-04-09T12:32:52;20.10;47.50
31677;DHT22;18385;51.572;6.578;2023-04-09T12:35:19;20.30;47.20
31677;DHT22;18385;51.572;6.578;2023-04-09T12:37:45;20.60;47.00
31677;DHT22;18385;51.572;6.578;2023-04-09T12:40:11;20.70;46.60
31677;DHT22;18385;51.572;6.578;2023-04-09T12:42:39;20.80;46.30
31677;DHT22;18385;51.572;6.578;2023-04-09T12:45:06;20.80;46.00
31677;DHT22;18385;51.572;6.578;2023-04-09T12:47:32;20.90;45.90
31677;DHT22;18385;51.572;6.578;2023-04-09T12:49:58;21.00;45.60
31677;DHT22;18385;51.572;6.578;2023-04-09T12:52:24;21.10;45.50
31677;DHT22;18385;51.572;6.578;2023-04-09T12:54:51;21.20;45.00
31677;DHT22;18385;51.572;6.578;2023-04-09T12:57:17;21.40;45.00
31677;DHT22;18385;51.572;6.578;2023-04-09T12:59:42;21.70;45.10
31677;DHT22;18385;51.572;6.578;2023-04-09T13:02:08;22.00;44.40
31677;DHT22;18385;51.572;6.578;2023-04-09T13:04:34;22.00;44.10
31677;DHT22;18385;51.572;6.578;2023-04-09T13:07:00;22.20;44.30
31677;DHT22;18385;51.572;6.578;2023-04-09T13:09:26;22.20;43.10
31677;DHT22;18385;51.572;6.578;2023-04-09T13:11:52;22.10;42.80
31677;DHT22;18385;51.572;6.578;2023-04-09T13:14:19;22.00;43.00
31677;DHT22;18385;51.572;6.578;2023-04-09T13:16:45;22.10;43.20
31677;DHT22;18385;51.572;6.578;2023-04-09T13:19:10;22.30;43.00
31677;DHT22;18385;51.572;6.578;2023-04-09T13:21:36;22.30;43.00
31677;DHT22;18385;51.572;6.578;2023-04-09T13:24:02;22.60;43.60
31677;DHT22;18385;51.572;6.578;2023-04-09T13:26:30;23.00;43.30
31677;DHT22;18385;51.572;6.578;2023-04-09T13:28:56;23.30;42.50
31677;DHT22;18385;51.572;6.578;2023-04-09T13:31:22;23.60;42.30
31677;DHT22;18385;51.572;6.578;2023-04-09T13:33:47;23.60;41.70
31677;DHT22;18385;51.572;6.578;2023-04-09T13:36:13;23.30;41.10
31677;DHT22;18385;51.572;6.578;2023-04-09T13:38:38;22.80;40.90
31677;DHT22;18385;51.572;6.578;2023-04-09T13:41:05;22.50;40.90
31677;DHT22;18385;51.572;6.578;2023-04-09T13:43:30;22.20;41.10
31677;DHT22;18385;51.572;6.578;2023-04-09T13:45:56;21.90;41.00
31677;DHT22;18385;51.572;6.578;2023-04-09T13:48:22;22.20;42.10
31677;DHT22;18385;51.572;6.578;2023-04-09T13:50:48;22.80;42.00
31677;DHT22;18385;51.572;6.578;2023-04-09T13:53:14;23.20;40.50
31677;DHT22;18385;51.572;6.578;2023-04-09T13:55:40;22.80;39.90
31677;DHT22;18385;51.572;6.578;2023-04-09T13:58:06;23.30;41.00
31677;DHT22;18385;51.572;6.578;2023-04-09T14:00:32;24.30;41.10
31677;DHT22;18385;51.572;6.578;2023-04-09T14:02:58;24.70;39.50
31677;DHT22;18385;51.572;6.578;2023-04-09T14:05:24;24.50;38.20
31677;DHT22;18385;51.572;6.578;2023-04-09T14:07:50;23.80;37.80
31677;DHT22;18385;51.572;6.578;2023-04-09T14:10:16;23.90;39.50
31677;DHT22;18385;51.572;6.578;2023-04-09T14:12:41;24.90;39.20
31677;DHT22;18385;51.572;6.578;2023-04-09T14:15:07;25.90;38.60
31677;DHT22;18385;51.572;6.578;2023-04-09T14:17:34;26.10;37.10
31677;DHT22;18385;51.572;6.578;2023-04-09T14:20:00;25.70;36.00
31677;DHT22;18385;51.572;6.578;2023-04-09T14:22:28;24.80;35.80
31677;DHT22;18385;51.572;6.578;2023-04-09T14:24:54;24.00;36.30
31677;DHT22;18385;51.572;6.578;2023-04-09T14:27:20;23.30;36.90
31677;DHT22;18385;51.572;6.578;2023-04-09T14:29:45;24.00;39.20
31677;DHT22;18385;51.572;6.578;2023-04-09T14:32:11;25.40;37.90
31677;DHT22;18385;51.572;6.578;2023-04-09T14:34:37;26.20;36.40
31677;DHT22;18385;51.572;6.578;2023-04-09T14:37:02;26.70;35.60
31677;DHT22;18385;51.572;6.578;2023-04-09T14:39:28;27.30;35.60
31677;DHT22;18385;51.572;6.578;2023-04-09T14:41:54;28.10;34.50
31677;DHT22;18385;51.572;6.578;2023-04-09T14:44:21;28.60;34.10
31677;DHT22;18385;51.572;6.578;2023-04-09T14:46:50;29.10;33.40
31677;DHT22;18385;51.572;6.578;2023-04-09T14:49:17;29.50;33.10
31677;DHT22;18385;51.572;6.578;2023-04-09T14:51:42;30.00;32.20
31677;DHT22;18385;51.572;6.578;2023-04-09T14:54:08;30.50;31.90
31677;DHT22;18385;51.572;6.578;2023-04-09T14:56:34;30.90;31.00
31677;DHT22;18385;51.572;6.578;2023-04-09T14:58:59;31.40;30.80
31677;DHT22;18385;51.572;6.578;2023-04-09T15:01:25;31.90;30.00
31677;DHT22;18385;51.572;6.578;2023-04-09T15:03:51;31.90;29.10
31677;DHT22;18385;51.572;6.578;2023-04-09T15:06:17;31.00;28.10
31677;DHT22;18385;51.572;6.578;2023-04-09T15:08:44;29.30;28.10
31677;DHT22;18385;51.572;6.578;2023-04-09T15:11:19;27.60;29.00
31677;DHT22;18385;51.572;6.578;2023-04-09T15:13:47;27.90;31.20
31677;DHT22;18385;51.572;6.578;2023-04-09T15:16:26;29.10;30.70
31677;DHT22;18385;51.572;6.578;2023-04-09T15:18:53;30.10;29.70
31677;DHT22;18385;51.572;6.578;2023-04-09T15:21:20;30.80;29.10
31677;DHT22;18385;51.572;6.578;2023-04-09T15:23:49;31.20;28.40
31677;DHT22;18385;51.572;6.578;2023-04-09T15:26:15;31.30;27.60
31677;DHT22;18385;51.572;6.578;2023-04-09T15:28:41;31.40;27.60
31677;DHT22;18385;51.572;6.578;2023-04-09T15:31:07;31.00;27.20
31677;DHT22;18385;51.572;6.578;2023-04-09T15:33:33;30.40;27.20
31677;DHT22;18385;51.572;6.578;2023-04-09T15:35:59;30.10;27.80
31677;DHT22;18385;51.572;6.578;2023-04-09T15:38:24;30.30;27.20
31677;DHT22;18385;51.572;6.578;2023-04-09T15:40:51;30.00;27.00
31677;DHT22;18385;51.572;6.578;2023-04-09T15:43:17;29.30;27.00
31677;DHT22;18385;51.572;6.578;2023-04-09T15:45:43;28.70;27.20
31677;DHT22;18385;51.572;6.578;2023-04-09T15:48:09;28.10;27.30
31677;DHT22;18385;51.572;6.578;2023-04-09T15:50:35;28.20;27.40